createdAt,value
2022-11-15T00:02:33.207Z,18.92
2022-11-15T00:08:06.163Z,18.90
2022-11-15T00:13:28.155Z,18.90
2022-11-15T00:18:51.111Z,18.90
2022-11-15T00:24:13.004Z,18.88
2022-11-15T00:29:35.300Z,18.88
2022-11-15T00:34:57.452Z,18.84
2022-11-15T00:40:19.294Z,18.85
2022-11-15T00:45:54.656Z,18.83
2022-11-15T00:51:16.336Z,18.85
2022-11-15T00:56:38.386Z,18.93
2022-11-15T01:01:59.977Z,18.96
2022-11-15T01:07:22.524Z,18.99
2022-11-15T01:12:44.513Z,19.03
2022-11-15T01:18:06.275Z,19.10
2022-11-15T01:23:34.363Z,19.14
2022-11-15T01:28:56.535Z,19.12
2022-11-15T01:34:18.305Z,19.06
2022-11-15T01:39:40.099Z,19.01
2022-11-15T01:45:02.383Z,18.95
2022-11-15T01:50:32.103Z,18.92
2022-11-15T01:55:55.172Z,18.93
2022-11-15T02:01:17.137Z,18.92
2022-11-15T02:06:40.925Z,18.90
2022-11-15T02:12:02.509Z,18.92
2022-11-15T02:17:46.474Z,18.91
2022-11-15T02:23:30.525Z,18.84
2022-11-15T02:29:08.250Z,18.75
2022-11-15T02:34:55.590Z,18.68
2022-11-15T02:40:51.377Z,18.65
2022-11-15T02:46:42.671Z,18.60
2022-11-15T02:52:05.089Z,18.57
2022-11-15T02:57:52.784Z,18.56
2022-11-15T03:03:34.923Z,18.57
2022-11-15T03:09:15.930Z,18.57
2022-11-15T03:14:58.050Z,18.58
2022-11-15T03:20:20.733Z,18.57
2022-11-15T03:25:45.276Z,18.65
2022-11-15T03:31:09.757Z,18.69
2022-11-15T03:36:34.724Z,18.71
2022-11-15T03:42:13.518Z,18.68
2022-11-15T03:47:44.512Z,18.63
2022-11-15T03:53:06.469Z,18.55
2022-11-15T03:58:28.614Z,18.56
2022-11-15T04:03:50.879Z,18.62
2022-11-15T04:09:12.895Z,18.65
2022-11-15T04:14:53.026Z,18.66
2022-11-15T04:20:22.271Z,18.64
2022-11-15T04:25:45.056Z,18.64
2022-11-15T04:31:25.292Z,18.60
2022-11-15T04:37:05.552Z,18.63
2022-11-15T04:42:45.611Z,18.71
2022-11-15T04:48:19.502Z,18.77
2022-11-15T04:53:41.362Z,18.79
2022-11-15T04:59:03.470Z,18.84
2022-11-15T05:04:25.015Z,18.88
2022-11-15T05:09:47.422Z,18.93
2022-11-15T05:15:09.980Z,18.98
2022-11-15T05:20:32.006Z,19.08
2022-11-15T05:25:53.379Z,19.19
2022-11-15T05:31:17.021Z,19.32
2022-11-15T05:36:47.853Z,19.45
2022-11-15T05:42:13.036Z,19.49
2022-11-15T05:47:37.108Z,19.54
2022-11-15T05:53:04.683Z,19.72
2022-11-15T05:58:27.296Z,19.90
2022-11-15T06:03:49.068Z,20.21
2022-11-15T06:09:10.693Z,20.28
2022-11-15T06:14:32.803Z,20.16
2022-11-15T06:19:54.736Z,20.08
2022-11-15T06:25:16.762Z,20.01
2022-11-15T06:30:38.089Z,20.07
2022-11-15T06:36:14.511Z,20.26
2022-11-15T06:41:39.202Z,20.39
2022-11-15T06:47:01.566Z,20.39
2022-11-15T06:52:23.450Z,20.34
2022-11-15T06:57:52.844Z,20.39
2022-11-15T07:03:14.601Z,20.63
2022-11-15T07:08:36.828Z,20.88
2022-11-15T07:13:58.651Z,20.94
2022-11-15T07:19:20.421Z,21.06
2022-11-15T07:24:43.856Z,21.18
2022-11-15T07:30:07.101Z,21.30
2022-11-15T07:35:30.870Z,21.37
2022-11-15T07:40:58.880Z,21.38
2022-11-15T07:46:20.630Z,21.36
2022-11-15T07:51:42.435Z,21.41
2022-11-15T07:57:07.554Z,21.43
2022-11-15T08:02:32.607Z,21.40
2022-11-15T08:07:57.072Z,21.39
2022-11-15T08:13:19.678Z,21.31
2022-11-15T08:18:42.184Z,21.44
2022-11-15T08:24:07.224Z,21.52
2022-11-15T08:29:30.519Z,21.56
2022-11-15T08:34:55.344Z,21.61
2022-11-15T08:40:17.654Z,21.66
2022-11-15T08:45:39.605Z,21.68
2022-11-15T08:51:01.656Z,21.73
2022-11-15T08:56:23.651Z,21.77
2022-11-15T09:01:45.191Z,21.92
2022-11-15T09:07:06.958Z,22.01
2022-11-15T09:12:28.758Z,22.15
2022-11-15T09:17:51.344Z,22.14
2022-11-15T09:23:13.769Z,22.13
2022-11-15T09:28:39.723Z,22.05
2022-11-15T09:34:04.036Z,22.05
2022-11-15T09:39:25.786Z,22.11
2022-11-15T09:44:47.611Z,22.11
2022-11-15T09:50:20.639Z,22.11
2022-11-15T09:55:40.017Z,22.10
2022-11-15T10:00:48.573Z,22.07
2022-11-15T10:05:55.321Z,22.02
2022-11-15T10:11:35.521Z,22.04
2022-11-15T10:16:36.781Z,22.16
2022-11-15T10:22:12.031Z,22.34
2022-11-15T10:27:18.214Z,22.38
2022-11-15T10:32:22.636Z,22.34
2022-11-15T10:37:30.684Z,22.24
2022-11-15T10:42:34.500Z,22.14
2022-11-15T10:47:39.777Z,22.05
2022-11-15T10:52:47.939Z,22.02
2022-11-15T10:57:57.469Z,22.00
2022-11-15T11:03:04.226Z,21.97
2022-11-15T11:08:24.166Z,21.91
2022-11-15T11:13:32.034Z,21.90
2022-11-15T11:18:45.411Z,21.87
2022-11-15T11:24:12.340Z,21.84
2022-11-15T11:29:32.702Z,21.83
2022-11-15T11:35:00.498Z,21.85
2022-11-15T11:40:18.248Z,21.78
2022-11-15T11:46:02.970Z,21.71
2022-11-15T11:51:29.357Z,21.60
2022-11-15T11:56:39.686Z,21.45
2022-11-15T12:01:45.021Z,21.37
2022-11-15T12:07:00.367Z,21.39
2022-11-15T12:12:16.389Z,21.37
2022-11-15T12:17:27.382Z,21.44
2022-11-15T12:22:38.006Z,21.45
2022-11-15T12:27:53.644Z,21.21
2022-11-15T12:33:02.551Z,20.22
2022-11-15T12:38:06.401Z,20.11
2022-11-15T12:43:38.170Z,20.39
2022-11-15T12:48:41.498Z,20.65
2022-11-15T12:53:44.916Z,20.81
2022-11-15T12:59:00.320Z,20.92
2022-11-15T13:04:21.821Z,20.99
2022-11-15T13:09:31.119Z,21.05
2022-11-15T13:14:39.188Z,21.07
2022-11-15T13:19:42.848Z,21.06
2022-11-15T13:24:46.355Z,21.02
2022-11-15T13:29:49.749Z,20.93
2022-11-15T13:34:53.435Z,20.85
2022-11-15T13:40:17.161Z,20.83
2022-11-15T13:45:21.231Z,20.80
2022-11-15T13:50:31.129Z,20.75
2022-11-15T13:55:35.032Z,20.65
2022-11-15T14:00:44.132Z,20.60
2022-11-15T14:06:13.451Z,20.49
2022-11-15T14:11:19.629Z,20.37
2022-11-15T14:16:41.379Z,20.29
2022-11-15T14:22:21.998Z,20.25
2022-11-15T14:27:29.750Z,20.16
2022-11-15T14:32:50.565Z,20.12
2022-11-15T14:37:53.639Z,20.07
2022-11-15T14:42:56.681Z,19.96
2022-11-15T14:47:59.845Z,19.89
2022-11-15T14:53:03.763Z,19.81
2022-11-15T14:58:08.231Z,19.75
2022-11-15T15:03:11.978Z,19.65
2022-11-15T15:08:15.299Z,19.63
2022-11-15T15:13:21.284Z,19.60
2022-11-15T15:18:24.605Z,19.59
2022-11-15T15:23:28.500Z,19.57
2022-11-15T15:28:34.893Z,19.54
2022-11-15T15:33:39.210Z,19.48
2022-11-15T15:38:42.622Z,19.42
2022-11-15T15:43:46.404Z,19.38
2022-11-15T15:48:49.809Z,19.36
2022-11-15T15:53:53.178Z,19.34
2022-11-15T15:58:56.449Z,19.30
2022-11-15T16:03:59.842Z,19.25
2022-11-15T16:09:20.215Z,19.21
2022-11-15T16:14:24.518Z,19.20
2022-11-15T16:19:27.908Z,19.25
2022-11-15T16:24:31.202Z,19.23
2022-11-15T16:29:34.875Z,19.23
2022-11-15T16:34:41.889Z,19.29
2022-11-15T16:39:47.347Z,19.26
2022-11-15T16:44:50.952Z,19.20
2022-11-15T16:49:54.429Z,19.12
2022-11-15T16:54:58.087Z,19.15
2022-11-15T17:00:02.105Z,19.15
2022-11-15T17:05:11.862Z,19.20
2022-11-15T17:10:17.102Z,19.20
2022-11-15T17:15:20.446Z,19.18
2022-11-15T17:20:25.499Z,19.19
2022-11-15T17:25:28.794Z,19.18
2022-11-15T17:30:32.112Z,19.17
2022-11-15T17:35:35.757Z,19.15
2022-11-15T17:40:39.154Z,19.15
2022-11-15T17:45:42.839Z,19.12
2022-11-15T17:50:59.779Z,19.08
2022-11-15T17:56:04.871Z,19.04
2022-11-15T18:01:19.413Z,19.02
2022-11-15T18:06:24.800Z,19.02
2022-11-15T18:11:30.677Z,19.01
2022-11-15T18:16:41.023Z,18.99
2022-11-15T18:21:45.916Z,18.97
2022-11-15T18:26:49.287Z,19.01
2022-11-15T18:31:53.671Z,19.04
2022-11-15T18:36:56.904Z,19.05
2022-11-15T18:42:00.583Z,19.08
2022-11-15T18:47:04.180Z,19.11
2022-11-15T18:52:07.906Z,19.12
2022-11-15T18:57:11.317Z,19.13
2022-11-15T19:02:14.861Z,19.17
2022-11-15T19:07:18.660Z,19.20
2022-11-15T19:12:23.822Z,19.20
2022-11-15T19:17:30.554Z,19.16
2022-11-15T19:22:36.474Z,19.14
2022-11-15T19:27:39.718Z,19.17
2022-11-15T19:32:42.982Z,19.17
2022-11-15T19:37:46.256Z,19.12
2022-11-15T19:42:49.699Z,19.10
2022-11-15T19:47:53.137Z,19.09
2022-11-15T19:52:56.847Z,19.11
2022-11-15T19:58:00.394Z,19.06
2022-11-15T20:03:05.064Z,19.03
2022-11-15T20:08:08.317Z,18.99
2022-11-15T20:13:12.395Z,18.98
2022-11-15T20:18:17.022Z,18.96
2022-11-15T20:23:20.330Z,18.94
2022-11-15T20:28:24.444Z,18.90
2022-11-15T20:33:28.660Z,18.88
2022-11-15T20:38:33.110Z,18.84
2022-11-15T20:43:36.406Z,18.81
2022-11-15T20:48:39.489Z,18.79
2022-11-15T20:53:44.420Z,18.80
2022-11-15T20:58:48.404Z,18.80
2022-11-15T21:03:53.463Z,18.83
2022-11-15T21:09:05.994Z,18.82
2022-11-15T21:14:09.874Z,18.80
2022-11-15T21:19:15.634Z,18.79
2022-11-15T21:24:25.864Z,18.70
2022-11-15T21:29:31.247Z,18.65
2022-11-15T21:34:35.864Z,18.56
2022-11-15T21:39:39.679Z,18.48
2022-11-15T21:44:42.931Z,18.40
2022-11-15T21:49:46.516Z,18.41
2022-11-15T21:54:49.710Z,18.39
2022-11-15T21:59:53.089Z,18.37
2022-11-15T22:04:56.476Z,18.33
2022-11-15T22:09:59.965Z,18.33
2022-11-15T22:15:03.918Z,18.29
2022-11-15T22:20:37.290Z,18.26
2022-11-15T22:25:31.271Z,18.22
2022-11-15T22:30:34.744Z,18.19
2022-11-15T22:35:39.344Z,18.15
2022-11-15T22:40:43.990Z,18.11
2022-11-15T22:45:52.557Z,18.09
2022-11-15T22:50:56.383Z,18.04
2022-11-15T22:56:05.291Z,18.01
2022-11-15T23:01:20.624Z,17.96
2022-11-15T23:06:24.606Z,17.89
2022-11-15T23:11:27.853Z,17.83
2022-11-15T23:16:30.778Z,17.77
2022-11-15T23:21:42.987Z,17.77
2022-11-15T23:26:48.468Z,17.81
2022-11-15T23:32:01.231Z,17.86
2022-11-15T23:37:06.309Z,17.90
2022-11-15T23:42:09.781Z,18.00
2022-11-15T23:47:13.068Z,18.05
2022-11-15T23:52:17.889Z,17.99
2022-11-15T23:57:21.322Z,17.95
